Time;durP1;ratioP1;P1;durP2;ratioP2;P2;SDS_P1;SDS_P2;PMS_P1;PMS_P2;Temp;Humidity;BMP_temperature;BMP_pressure;BME280_temperature;BME280_humidity;BME280_pressure;Samples;Min_cycle;Max_cycle;Signal;HPM_P1;HPM_P2
2021/05/29 00:00:44;;;;;;;3.65;1.75;;;16.60;71.50;;;;;;5073954;28;20027;-64
2021/05/29 00:03:10;;;;;;;5.07;1.80;;;16.50;71.50;;;;;;5092256;28;20020;-64
2021/05/29 00:05:35;;;;;;;4.47;1.95;;;16.50;71.40;;;;;;5091889;28;20039;-64
2021/05/29 00:08:01;;;;;;;4.75;1.98;;;16.50;71.40;;;;;;5091402;28;20050;-63
2021/05/29 00:10:27;;;;;;;4.78;1.88;;;16.50;71.40;;;;;;5091502;28;20028;-64
2021/05/29 00:12:52;;;;;;;6.05;2.20;;;16.50;71.30;;;;;;5073307;28;20028;-63
2021/05/29 00:15:18;;;;;;;3.63;1.90;;;16.50;71.50;;;;;;5091756;28;20047;-64
2021/05/29 00:17:44;;;;;;;3.85;1.88;;;16.50;71.40;;;;;;5073139;28;20039;-64
2021/05/29 00:20:10;;;;;;;4.50;2.00;;;16.40;71.40;;;;;;5090609;28;20545;-64
2021/05/29 00:22:36;;;;;;;3.83;1.80;;;16.40;71.70;;;;;;5090911;28;20107;-63
2021/05/29 00:25:02;;;;;;;4.82;2.15;;;16.40;71.60;;;;;;5091369;28;20106;-64
2021/05/29 00:27:27;;;;;;;3.90;2.00;;;16.40;71.70;;;;;;5091999;28;20028;-64
2021/05/29 00:29:53;;;;;;;4.93;2.10;;;16.40;71.80;;;;;;5073835;28;20549;-64
2021/05/29 00:32:18;;;;;;;4.72;2.08;;;16.40;71.70;;;;;;5091403;28;20036;-63
2021/05/29 00:34:44;;;;;;;4.18;2.30;;;16.40;71.90;;;;;;5091378;28;20021;-63
2021/05/29 00:37:09;;;;;;;3.95;1.77;;;16.40;71.80;;;;;;5091560;28;20095;-64
2021/05/29 00:39:35;;;;;;;3.65;1.80;;;16.40;71.90;;;;;;5073610;28;20424;-63
2021/05/29 00:42:00;;;;;;;3.95;1.95;;;16.40;71.90;;;;;;5073457;28;20093;-64
2021/05/29 00:44:26;;;;;;;5.43;2.10;;;16.40;71.80;;;;;;5073043;28;20028;-64
2021/05/29 00:46:51;;;;;;;5.00;2.30;;;16.40;71.90;;;;;;5073067;28;20048;-63
2021/05/29 00:49:17;;;;;;;5.43;2.15;;;16.40;71.90;;;;;;5073449;28;20027;-64
2021/05/29 00:51:43;;;;;;;3.47;1.63;;;16.30;72.00;;;;;;5073157;28;20501;-64
2021/05/29 00:54:10;;;;;;;5.05;2.30;;;16.40;72.10;;;;;;5072325;28;20039;-64
2021/05/29 00:56:36;;;;;;;5.45;2.10;;;16.30;72.00;;;;;;5090944;28;20031;-64
2021/05/29 00:59:02;;;;;;;4.50;2.10;;;16.30;72.10;;;;;;5073454;28;20111;-64
2021/05/29 01:01:28;;;;;;;4.88;2.20;;;16.30;72.00;;;;;;5085073;28;20664;-63
2021/05/29 01:03:53;;;;;;;5.03;2.10;;;16.30;72.00;;;;;;5053593;28;20024;-64
2021/05/29 01:06:19;;;;;;;3.30;1.88;;;16.30;72.20;;;;;;5082344;28;20035;-64
2021/05/29 01:08:45;;;;;;;4.72;2.10;;;16.30;72.30;;;;;;5072127;28;20085;-64
2021/05/29 01:11:10;;;;;;;4.05;2.10;;;16.30;72.30;;;;;;5084415;28;20107;-64
2021/05/29 01:13:37;;;;;;;4.95;2.30;;;16.20;72.40;;;;;;5090372;28;20461;-64
2021/05/29 01:16:15;;;;;;;4.75;2.40;;;16.30;72.70;;;;;;5072213;28;20056;-63
2021/05/29 01:18:40;;;;;;;4.95;2.38;;;16.30;72.60;;;;;;5090901;28;20051;-64
2021/05/29 01:21:07;;;;;;;5.68;2.50;;;16.20;72.60;;;;;;5052556;28;20052;-64
2021/05/29 01:23:32;;;;;;;5.60;2.30;;;16.20;72.60;;;;;;5087472;28;20013;-64
2021/05/29 01:25:58;;;;;;;5.00;2.08;;;16.20;73.20;;;;;;5094171;28;20035;-64
2021/05/29 01:28:28;;;;;;;5.68;2.55;;;16.20;72.70;;;;;;5094157;28;20024;-64
2021/05/29 01:31:00;;;;;;;5.32;2.30;;;16.20;72.70;;;;;;5094346;28;20051;-64
2021/05/29 01:33:31;;;;;;;5.28;2.53;;;16.20;72.70;;;;;;5075699;28;20029;-62
2021/05/29 01:36:06;;;;;;;5.03;2.30;;;16.20;73.30;;;;;;5076172;28;20016;-64
2021/05/29 01:38:32;;;;;;;4.68;2.45;;;16.20;72.80;;;;;;5093615;28;20032;-64
2021/05/29 01:41:12;;;;;;;5.70;2.25;;;16.20;72.80;;;;;;5094294;28;20028;-64
2021/05/29 01:43:40;;;;;;;5.70;2.95;;;16.20;72.80;;;;;;5090434;28;20072;-64
2021/05/29 01:46:06;;;;;;;5.78;2.67;;;16.20;72.80;;;;;;5075212;28;20028;-64
2021/05/29 01:48:39;;;;;;;6.25;2.83;;;16.20;72.80;;;;;;5093940;28;20513;-64
2021/05/29 01:51:05;;;;;;;5.55;3.00;;;16.20;72.80;;;;;;5094148;28;20500;-64
2021/05/29 01:53:32;;;;;;;5.85;2.42;;;16.20;72.90;;;;;;5092230;28;20035;-63
2021/05/29 01:55:58;;;;;;;5.95;3.03;;;16.20;73.00;;;;;;5087501;28;20016;-63
2021/05/29 01:58:24;;;;;;;5.28;2.88;;;16.20;72.90;;;;;;5073871;28;20028;-64
2021/05/29 02:00:49;;;;;;;5.28;2.90;;;16.20;72.90;;;;;;5060387;28;20078;-64
2021/05/29 02:03:15;;;;;;;6.70;2.97;;;16.20;73.00;;;;;;5094152;28;20584;-64
2021/05/29 02:05:41;;;;;;;6.35;2.78;;;16.20;73.00;;;;;;5093297;28;20071;-63
2021/05/29 02:08:09;;;;;;;6.20;2.83;;;16.20;73.00;;;;;;5093131;28;20444;-65
2021/05/29 02:10:36;;;;;;;6.22;3.15;;;16.10;73.00;;;;;;5093468;28;20032;-65
2021/05/29 02:13:05;;;;;;;5.90;2.85;;;16.10;73.00;;;;;;5088037;28;20320;-64
2021/05/29 02:15:41;;;;;;;6.15;2.85;;;16.10;73.10;;;;;;5084689;28;20077;-64
2021/05/29 02:18:08;;;;;;;6.07;3.00;;;16.10;73.10;;;;;;5074683;28;20039;-65
2021/05/29 02:20:37;;;;;;;5.40;3.10;;;16.10;73.20;;;;;;5093482;28;20098;-63
2021/05/29 02:23:03;;;;;;;6.25;3.20;;;16.10;73.10;;;;;;5092734;28;20606;-64
2021/05/29 02:25:28;;;;;;;6.45;3.92;;;16.10;73.20;;;;;;5093141;28;20032;-64
2021/05/29 02:27:54;;;;;;;5.18;3.38;;;16.10;73.20;;;;;;5093225;28;20477;-63
2021/05/29 02:30:22;;;;;;;9.07;3.30;;;16.10;73.30;;;;;;5093159;28;20370;-64
2021/05/29 02:32:48;;;;;;;6.80;3.58;;;16.10;73.30;;;;;;5093158;28;20028;-65
2021/05/29 02:35:14;;;;;;;6.53;3.40;;;16.00;73.20;;;;;;5092383;28;20036;-65
2021/05/29 02:37:40;;;;;;;7.05;3.47;;;16.00;73.30;;;;;;5092752;28;20020;-65
2021/05/29 02:40:06;;;;;;;6.28;3.65;;;16.00;73.30;;;;;;5093205;28;20024;-64
2021/05/29 02:42:31;;;;;;;7.25;3.53;;;16.00;73.30;;;;;;5074632;28;20024;-64
2021/05/29 02:44:58;;;;;;;7.22;3.92;;;16.00;73.30;;;;;;5092110;28;20406;-63
2021/05/29 02:47:23;;;;;;;7.32;3.83;;;16.00;73.40;;;;;;5092712;28;20023;-64
2021/05/29 02:49:49;;;;;;;7.10;3.60;;;16.00;73.40;;;;;;5093225;28;20478;-63
2021/05/29 02:52:15;;;;;;;6.57;3.70;;;16.00;73.40;;;;;;5092167;28;20056;-64
2021/05/29 02:54:42;;;;;;;6.28;3.80;;;16.00;73.40;;;;;;5091970;28;20060;-66
2021/05/29 02:57:10;;;;;;;7.20;3.83;;;15.90;73.40;;;;;;5086107;28;20043;-64
2021/05/29 02:59:35;;;;;;;7.43;4.10;;;16.00;73.40;;;;;;5074001;28;20028;-64
2021/05/29 03:02:02;;;;;;;6.90;3.85;;;15.90;73.30;;;;;;5057799;28;20144;-65
2021/05/29 03:04:28;;;;;;;7.65;4.03;;;16.00;73.50;;;;;;5074178;28;20036;-64
2021/05/29 03:06:53;;;;;;;6.30;3.53;;;15.90;73.40;;;;;;5092099;28;20109;-64
2021/05/29 03:09:19;;;;;;;6.95;4.03;;;16.00;73.40;;;;;;5074300;28;20036;-64
2021/05/29 03:11:44;;;;;;;7.38;4.20;;;16.00;73.40;;;;;;5092210;28;20038;-63
2021/05/29 03:14:10;;;;;;;7.50;3.92;;;16.00;73.40;;;;;;5091754;28;20529;-64
2021/05/29 03:16:36;;;;;;;6.43;3.70;;;15.90;73.40;;;;;;5092365;28;20397;-63
2021/05/29 03:19:02;;;;;;;6.35;3.63;;;15.90;73.40;;;;;;5092377;28;20544;-64
2021/05/29 03:21:27;;;;;;;6.53;3.72;;;15.90;73.40;;;;;;5091969;28;20028;-62
2021/05/29 03:23:53;;;;;;;8.30;4.10;;;15.90;73.40;;;;;;5091484;28;20035;-64
2021/05/29 03:26:19;;;;;;;7.32;4.43;;;15.90;73.40;;;;;;5069044;28;20419;-64
2021/05/29 03:28:44;;;;;;;8.05;3.80;;;16.00;73.50;;;;;;5091747;28;20028;-64
2021/05/29 03:31:10;;;;;;;6.15;3.70;;;16.00;73.40;;;;;;5092136;28;20036;-64
2021/05/29 03:33:36;;;;;;;6.35;3.42;;;16.00;73.50;;;;;;5091230;28;20158;-64
2021/05/29 03:36:01;;;;;;;7.18;4.00;;;15.90;73.50;;;;;;5091996;28;20422;-63
2021/05/29 03:38:27;;;;;;;7.25;3.92;;;16.00;73.50;;;;;;5091517;28;20023;-65
2021/05/29 03:40:52;;;;;;;8.65;4.28;;;15.90;73.50;;;;;;5092122;28;20100;-63
2021/05/29 03:43:18;;;;;;;7.60;3.85;;;16.10;73.50;;;;;;5091599;28;20393;-64
2021/05/29 03:45:43;;;;;;;8.10;4.30;;;15.90;73.40;;;;;;5091280;28;20028;-64
2021/05/29 03:48:09;;;;;;;7.45;4.28;;;16.00;73.50;;;;;;5091160;28;20028;-63
2021/05/29 03:50:38;;;;;;;9.43;4.00;;;16.00;73.20;;;;;;5073490;28;20024;-64
2021/05/29 03:53:08;;;;;;;7.43;4.38;;;16.00;73.30;;;;;;5090391;28;20028;-63
2021/05/29 03:55:34;;;;;;;7.43;4.07;;;16.00;73.20;;;;;;5091131;28;20028;-64
2021/05/29 03:58:01;;;;;;;7.68;4.25;;;15.90;73.10;;;;;;5073337;28;20104;-64
2021/05/29 04:00:28;;;;;;;7.85;4.13;;;16.00;73.20;;;;;;5073035;28;20020;-63
2021/05/29 04:02:53;;;;;;;7.03;4.00;;;15.80;73.00;;;;;;5073290;28;20024;-64
2021/05/29 04:05:20;;;;;;;7.47;4.30;;;16.00;73.10;;;;;;5090771;28;20040;-63
2021/05/29 04:07:46;;;;;;;8.80;4.25;;;16.00;73.00;;;;;;5090725;28;20501;-64
2021/05/29 04:10:15;;;;;;;8.02;4.05;;;16.00;73.00;;;;;;5073264;28;20036;-64
2021/05/29 04:12:41;;;;;;;7.50;4.05;;;16.00;72.90;;;;;;5090534;28;20047;-66
2021/05/29 04:15:08;;;;;;;7.03;4.30;;;16.00;73.00;;;;;;5088491;28;20035;-65
2021/05/29 04:17:33;;;;;;;6.43;3.97;;;16.00;72.90;;;;;;5091099;28;20024;-63
2021/05/29 04:19:59;;;;;;;6.28;4.00;;;16.00;72.80;;;;;;5072965;28;20022;-64
2021/05/29 04:22:25;;;;;;;7.47;4.53;;;16.00;72.80;;;;;;5089799;28;20107;-65
2021/05/29 04:24:50;;;;;;;7.68;4.35;;;16.00;72.80;;;;;;5088615;28;20069;-64
2021/05/29 04:27:17;;;;;;;7.10;4.07;;;16.00;73.30;;;;;;5090657;28;20028;-63
2021/05/29 04:29:43;;;;;;;7.63;4.25;;;16.00;72.60;;;;;;5090845;28;20509;-64
2021/05/29 04:32:09;;;;;;;7.93;4.10;;;16.00;72.60;;;;;;5091152;28;20058;-63
2021/05/29 04:34:34;;;;;;;7.18;4.13;;;16.00;72.50;;;;;;5072213;28;20107;-64
2021/05/29 04:37:00;;;;;;;7.22;4.38;;;16.10;72.60;;;;;;5090330;28;20034;-64
2021/05/29 04:39:26;;;;;;;7.22;4.40;;;16.00;73.10;;;;;;5091241;28;20107;-64
2021/05/29 04:41:51;;;;;;;8.57;4.28;;;16.10;72.70;;;;;;5072339;28;20025;-64
2021/05/29 04:44:17;;;;;;;7.97;4.43;;;16.10;72.70;;;;;;5090412;28;20036;-63
2021/05/29 04:46:50;;;;;;;7.63;4.38;;;16.10;72.60;;;;;;5071396;28;20393;-64
2021/05/29 04:49:18;;;;;;;6.95;3.78;;;16.10;72.60;;;;;;5070956;28;20024;-63
2021/05/29 04:51:45;;;;;;;7.10;4.13;;;16.10;72.50;;;;;;5072396;28;20162;-65
2021/05/29 04:54:10;;;;;;;8.75;4.72;;;16.10;72.40;;;;;;5072018;28;20025;-63
2021/05/29 04:56:36;;;;;;;7.65;4.53;;;16.10;72.30;;;;;;5088890;28;20028;-63
2021/05/29 04:59:01;;;;;;;8.35;4.70;;;16.10;72.30;;;;;;5072493;28;20020;-65
2021/05/29 05:01:30;;;;;;;7.30;4.47;;;16.10;72.20;;;;;;5094703;28;20112;-65
2021/05/29 05:03:56;;;;;;;8.43;4.50;;;16.20;72.30;;;;;;5094696;28;20438;-64
2021/05/29 05:06:21;;;;;;;8.02;4.80;;;16.20;72.20;;;;;;5094574;28;20031;-64
2021/05/29 05:08:47;;;;;;;7.72;4.35;;;16.10;72.10;;;;;;5094771;28;20024;-64
2021/05/29 05:11:12;;;;;;;8.15;4.55;;;16.20;71.90;;;;;;5076542;28;20481;-64
2021/05/29 05:13:38;;;;;;;6.90;4.30;;;16.20;71.90;;;;;;5094016;28;20028;-64
2021/05/29 05:16:04;;;;;;;8.82;4.70;;;16.20;71.90;;;;;;5094815;28;20052;-64
2021/05/29 05:18:29;;;;;;;7.95;4.55;;;16.20;71.80;;;;;;5094512;28;20024;-64
2021/05/29 05:20:55;;;;;;;7.38;4.43;;;16.20;71.80;;;;;;5093619;28;20020;-63
2021/05/29 05:23:22;;;;;;;7.75;4.32;;;16.20;71.60;;;;;;5094282;28;20493;-63
2021/05/29 05:25:52;;;;;;;7.45;4.82;;;16.20;71.60;;;;;;5094063;28;20050;-64
2021/05/29 05:28:18;;;;;;;8.35;4.32;;;16.20;71.50;;;;;;5076053;28;20481;-63
2021/05/29 05:30:44;;;;;;;8.68;4.70;;;16.30;71.60;;;;;;5075815;28;20059;-64
2021/05/29 05:33:10;;;;;;;7.45;4.38;;;16.20;71.40;;;;;;5071770;28;20020;-63
2021/05/29 05:35:35;;;;;;;8.25;4.53;;;16.20;71.40;;;;;;5093487;28;20103;-63
2021/05/29 05:38:01;;;;;;;8.35;4.57;;;16.30;71.50;;;;;;5089935;28;20035;-66
2021/05/29 05:40:27;;;;;;;7.10;4.30;;;16.20;71.20;;;;;;5093192;28;20027;-64
2021/05/29 05:42:52;;;;;;;7.47;4.82;;;16.20;71.20;;;;;;5090031;28;20024;-64
2021/05/29 05:45:18;;;;;;;7.22;4.30;;;16.30;71.20;;;;;;5073545;28;20517;-64
2021/05/29 05:47:44;;;;;;;7.38;4.40;;;16.30;71.20;;;;;;5056087;28;20024;-64
2021/05/29 05:50:11;;;;;;;8.50;4.55;;;16.30;71.20;;;;;;5076920;28;20035;-64
2021/05/29 05:52:38;;;;;;;10.18;4.80;;;16.30;71.30;;;;;;5087605;28;20042;-63
2021/05/29 05:55:05;;;;;;;8.05;4.47;;;16.30;71.40;;;;;;5083846;28;20020;-65
2021/05/29 05:57:32;;;;;;;7.43;4.22;;;16.30;71.40;;;;;;5067929;28;20047;-65
2021/05/29 05:59:58;;;;;;;8.85;4.63;;;16.30;71.30;;;;;;5069592;28;20031;-64
2021/05/29 06:02:24;;;;;;;9.40;4.65;;;16.30;71.30;;;;;;5069736;28;20034;-65
2021/05/29 06:04:50;;;;;;;8.27;4.60;;;16.30;71.40;;;;;;5069375;28;20187;-64
2021/05/29 06:07:16;;;;;;;7.30;4.45;;;16.30;71.40;;;;;;5064900;28;20032;-64
2021/05/29 06:09:41;;;;;;;7.15;4.63;;;16.30;71.40;;;;;;5067053;28;20032;-65
2021/05/29 06:12:07;;;;;;;7.65;4.60;;;16.30;71.30;;;;;;5066993;28;20028;-65
2021/05/29 06:20:05;;;;;;;8.85;4.43;;;16.30;71.50;;;;;;5066833;28;20112;-67
2021/05/29 06:22:30;;;;;;;11.38;5.25;;;16.30;71.30;;;;;;5049109;28;20443;-64
2021/05/29 06:24:56;;;;;;;7.80;4.53;;;16.30;71.30;;;;;;5048471;28;20081;-64
2021/05/29 06:27:21;;;;;;;7.18;4.60;;;16.30;71.30;;;;;;5067002;28;20036;-64
2021/05/29 06:29:47;;;;;;;6.20;4.07;;;16.30;71.40;;;;;;5048988;28;20394;-66
2021/05/29 06:32:13;;;;;;;8.32;4.75;;;16.30;71.40;;;;;;5057750;28;20468;-64
2021/05/29 06:34:40;;;;;;;7.63;4.43;;;16.30;71.40;;;;;;5086669;28;20028;-64
2021/05/29 06:37:06;;;;;;;8.43;4.13;;;16.30;71.30;;;;;;5068147;28;20047;-66
2021/05/29 06:39:32;;;;;;;10.30;5.70;;;16.30;71.20;;;;;;5086423;28;20059;-65
2021/05/29 06:41:57;;;;;;;13.95;9.05;;;16.40;71.40;;;;;;5068207;28;20070;-64
2021/05/29 06:44:23;;;;;;;12.23;8.13;;;16.40;71.90;;;;;;5086715;28;20168;-64
2021/05/29 06:46:48;;;;;;;13.93;7.50;;;16.40;72.10;;;;;;5068325;28;20082;-66
2021/05/29 06:49:17;;;;;;;13.32;7.05;;;16.40;72.50;;;;;;5086613;28;20043;-64
2021/05/29 06:51:54;;;;;;;11.20;6.70;;;16.40;72.60;;;;;;5087070;28;20027;-66
2021/05/29 06:59:30;;;;;;;10.65;6.18;;;16.40;72.40;;;;;;5090973;28;20043;-63
2021/05/29 07:01:58;;;;;;;8.55;5.25;;;16.40;72.30;;;;;;5065800;28;20028;-65
2021/05/29 07:04:24;;;;;;;9.95;6.03;;;16.40;72.20;;;;;;5088974;28;20777;-64
2021/05/29 07:06:49;;;;;;;10.85;5.45;;;16.40;72.20;;;;;;5107132;28;20036;-65
2021/05/29 07:09:18;;;;;;;9.07;5.07;;;16.40;72.00;;;;;;5106928;28;20103;-68
2021/05/29 07:11:43;;;;;;;10.20;5.40;;;16.40;71.90;;;;;;5106188;28;20085;-65
2021/05/29 07:14:09;;;;;;;11.98;5.65;;;16.40;71.60;;;;;;5106701;28;20019;-65
2021/05/29 07:16:35;;;;;;;9.88;5.30;;;16.40;71.60;;;;;;5088455;28;20028;-65
2021/05/29 07:19:02;;;;;;;10.75;6.25;;;16.50;72.20;;;;;;5066813;28;20020;-65
2021/05/29 07:21:27;;;;;;;15.63;7.05;;;16.50;72.20;;;;;;5067294;28;20059;-64
2021/05/29 07:23:53;;;;;;;11.82;6.80;;;16.50;70.90;;;;;;5067392;28;20028;-63
2021/05/29 07:26:18;;;;;;;12.05;7.15;;;16.50;71.50;;;;;;5074880;28;20413;-62
2021/05/29 07:28:44;;;;;;;13.75;7.15;;;16.50;71.40;;;;;;5095859;28;20477;-63
2021/05/29 07:31:09;;;;;;;12.93;7.07;;;16.50;71.20;;;;;;5104811;28;20030;-69
2021/05/29 07:33:35;;;;;;;12.35;7.10;;;16.50;71.00;;;;;;5096256;28;20024;-66
2021/05/29 07:36:01;;;;;;;14.02;6.53;;;16.50;70.90;;;;;;5057090;28;20032;-64
2021/05/29 07:38:26;;;;;;;22.33;7.30;;;16.50;71.00;;;;;;5068717;28;20099;-62
2021/05/29 07:40:52;;;;;;;11.43;7.00;;;16.60;71.40;;;;;;5052346;28;20535;-63
2021/05/29 07:43:18;;;;;;;12.38;6.43;;;16.60;71.90;;;;;;5057435;28;20036;-63
2021/05/29 07:45:44;;;;;;;12.77;6.80;;;16.60;72.10;;;;;;5083605;28;20035;-64
2021/05/29 07:48:11;;;;;;;11.98;6.00;;;16.70;72.80;;;;;;5057460;28;20078;-66
2021/05/29 07:50:57;;;;;;;13.68;7.07;;;16.70;72.60;;;;;;5077378;28;20472;-63
2021/05/29 07:53:23;;;;;;;15.70;7.35;;;16.80;72.30;;;;;;5078274;28;20530;-63
2021/05/29 07:55:49;;;;;;;14.32;6.70;;;16.80;72.30;;;;;;5078807;28;20391;-63
2021/05/29 07:58:14;;;;;;;13.13;7.10;;;16.70;72.40;;;;;;5083593;28;20020;-63
2021/05/29 08:00:43;;;;;;;10.30;6.47;;;16.70;72.40;;;;;;5084889;28;20020;-64
2021/05/29 08:03:08;;;;;;;13.95;6.47;;;16.70;72.30;;;;;;5084544;28;20028;-64
2021/05/29 08:05:34;;;;;;;12.77;6.35;;;16.70;72.30;;;;;;5085144;28;20950;-64
2021/05/29 08:08:00;;;;;;;12.80;7.13;;;16.70;71.80;;;;;;5054085;28;20039;-63
2021/05/29 08:10:25;;;;;;;12.40;7.30;;;16.70;71.30;;;;;;5084886;28;20039;-63
2021/05/29 08:12:51;;;;;;;10.23;6.55;;;16.70;71.60;;;;;;5058781;28;20421;-64
2021/05/29 08:15:17;;;;;;;12.02;6.80;;;16.70;71.80;;;;;;5064649;28;20034;-63
2021/05/29 08:17:42;;;;;;;11.20;6.30;;;16.70;71.60;;;;;;5058502;28;20024;-64
2021/05/29 08:20:08;;;;;;;10.43;6.68;;;16.70;71.10;;;;;;5084754;28;20485;-64
2021/05/29 08:22:34;;;;;;;14.20;6.68;;;16.70;71.10;;;;;;5066746;28;20493;-64
2021/05/29 08:24:59;;;;;;;13.68;7.20;;;16.70;70.90;;;;;;5084547;28;20097;-64
2021/05/29 08:27:25;;;;;;;11.23;7.47;;;16.70;71.20;;;;;;5085144;28;20032;-65
2021/05/29 08:29:50;;;;;;;12.95;7.65;;;16.70;71.10;;;;;;5071164;28;20085;-64
2021/05/29 08:32:16;;;;;;;11.15;7.53;;;16.70;71.00;;;;;;5092263;28;20035;-65
2021/05/29 08:34:41;;;;;;;20.92;7.88;;;16.70;70.70;;;;;;5088892;28;20101;-64
2021/05/29 08:37:07;;;;;;;10.80;6.95;;;16.70;70.50;;;;;;5092333;28;20020;-64
2021/05/29 08:39:32;;;;;;;11.48;7.22;;;16.70;70.80;;;;;;5066680;28;20436;-63
2021/05/29 08:42:00;;;;;;;11.93;6.85;;;16.70;70.40;;;;;;5078416;28;20037;-64
2021/05/29 08:44:26;;;;;;;11.00;6.93;;;16.70;70.30;;;;;;5066850;28;20077;-65
2021/05/29 08:46:51;;;;;;;14.95;7.60;;;16.70;70.50;;;;;;5045996;28;20032;-64
2021/05/29 08:49:20;;;;;;;18.85;7.85;;;16.70;70.30;;;;;;5045385;28;20047;-65
2021/05/29 08:51:46;;;;;;;15.02;7.60;;;16.80;69.90;;;;;;5062367;28;20982;-64
2021/05/29 08:54:12;;;;;;;14.73;7.65;;;16.70;69.90;;;;;;5063042;28;20071;-63
2021/05/29 08:56:37;;;;;;;13.00;7.47;;;16.70;70.20;;;;;;5070459;28;20482;-66
2021/05/29 08:59:03;;;;;;;13.02;7.00;;;16.80;70.10;;;;;;5045799;28;20078;-65
2021/05/29 09:01:28;;;;;;;14.32;7.35;;;16.80;69.80;;;;;;5064370;28;20028;-65
2021/05/29 09:03:57;;;;;;;13.57;7.10;;;16.80;70.10;;;;;;5045926;28;20082;-63
2021/05/29 09:06:26;;;;;;;16.20;7.15;;;16.80;69.60;;;;;;5064714;28;20016;-64
2021/05/29 09:08:59;;;;;;;18.92;7.20;;;16.80;69.30;;;;;;5064637;28;20035;-64
2021/05/29 09:11:50;;;;;;;13.18;6.78;;;16.80;69.50;;;;;;5046169;28;20031;-65
2021/05/29 09:14:29;;;;;;;20.40;7.60;;;16.90;69.70;;;;;;5046159;28;20517;-64
2021/05/29 09:17:07;;;;;;;19.48;7.32;;;16.90;69.70;;;;;;5064220;28;20069;-64
2021/05/29 09:19:56;;;;;;;16.83;7.40;;;16.90;69.50;;;;;;5064044;28;20021;-65
2021/05/29 09:22:58;;;;;;;14.27;6.63;;;17.00;69.80;;;;;;5076034;28;20028;-68
2021/05/29 09:25:28;;;;;;;14.32;6.55;;;17.00;70.10;;;;;;5077506;28;20665;-67
2021/05/29 09:28:04;;;;;;;17.40;6.82;;;17.10;69.50;;;;;;5062644;28;20025;-66
2021/05/29 09:30:45;;;;;;;17.42;7.07;;;17.20;69.50;;;;;;5064508;28;20056;-67
2021/05/29 09:33:16;;;;;;;19.45;6.50;;;17.20;69.10;;;;;;5064106;28;20490;-67
2021/05/29 09:35:45;;;;;;;12.68;5.72;;;17.20;69.30;;;;;;5064878;28;20115;-66
2021/05/29 09:38:11;;;;;;;18.33;6.00;;;17.20;69.20;;;;;;5070213;28;20120;-67
2021/05/29 09:40:37;;;;;;;14.38;6.22;;;17.30;68.90;;;;;;5078071;28;20017;-67
2021/05/29 09:43:07;;;;;;;15.20;5.93;;;17.30;68.90;;;;;;5072506;28;20115;-67
2021/05/29 09:45:33;;;;;;;13.82;5.32;;;17.30;68.80;;;;;;5073491;28;20028;-68
2021/05/29 09:48:08;;;;;;;15.00;5.32;;;17.40;68.80;;;;;;5093882;28;20032;-67
2021/05/29 09:50:34;;;;;;;41.53;7.30;;;17.40;68.10;;;;;;5094014;28;20542;-66
2021/05/29 09:52:59;;;;;;;21.58;6.18;;;17.40;68.40;;;;;;5076041;28;20020;-66
2021/05/29 09:55:37;;;;;;;31.15;7.20;;;17.40;68.70;;;;;;5092223;28;20059;-64
2021/05/29 09:58:02;;;;;;;26.25;6.22;;;17.40;68.50;;;;;;5074039;28;20020;-63
2021/05/29 10:00:47;;;;;;;30.75;6.75;;;17.40;68.10;;;;;;5072966;28;20505;-65
2021/05/29 10:03:13;;;;;;;30.00;6.80;;;17.40;67.90;;;;;;5053529;28;20509;-64
2021/05/29 10:05:43;;;;;;;24.08;7.13;;;17.40;67.90;;;;;;5065094;28;20620;-66
2021/05/29 10:08:13;;;;;;;19.30;6.13;;;17.40;68.20;;;;;;5108067;28;20106;-62
2021/05/29 10:10:39;;;;;;;33.15;7.03;;;17.40;67.80;;;;;;5107843;28;20401;-66
2021/05/29 10:13:04;;;;;;;28.25;6.68;;;17.40;67.10;;;;;;5100548;28;20032;-64
2021/05/29 10:15:30;;;;;;;27.65;6.22;;;17.40;68.10;;;;;;5087170;28;20035;-61
2021/05/29 10:17:57;;;;;;;33.90;7.63;;;17.40;68.30;;;;;;5083801;28;20027;-63
2021/05/29 10:20:23;;;;;;;23.40;6.03;;;17.40;68.30;;;;;;5107937;28;20135;-65
2021/05/29 10:22:49;;;;;;;19.95;6.53;;;17.50;68.00;;;;;;5107750;28;20027;-63
2021/05/29 10:25:17;;;;;;;19.67;5.70;;;17.40;68.20;;;;;;5106732;28;20397;-64
2021/05/29 10:27:46;;;;;;;22.45;6.30;;;17.40;68.10;;;;;;5089038;28;20020;-63
2021/05/29 10:30:13;;;;;;;19.92;5.55;;;17.40;68.10;;;;;;5089320;28;20032;-65
2021/05/29 10:32:38;;;;;;;16.55;5.80;;;17.40;68.10;;;;;;5106736;28;20027;-61
2021/05/29 10:35:09;;;;;;;17.60;5.10;;;17.40;68.10;;;;;;5081526;28;20024;-63
2021/05/29 10:37:37;;;;;;;16.25;5.72;;;17.40;68.00;;;;;;5067005;28;20029;-63
2021/05/29 10:40:21;;;;;;;16.65;6.00;;;17.40;67.90;;;;;;5066367;28;20417;-63
2021/05/29 10:43:06;;;;;;;15.55;5.75;;;17.40;68.10;;;;;;5048617;28;20035;-63
2021/05/29 10:45:33;;;;;;;12.98;5.47;;;17.40;67.80;;;;;;5065350;28;20067;-63
2021/05/29 10:48:01;;;;;;;15.80;5.32;;;17.40;67.70;;;;;;5065965;28;20353;-64
2021/05/29 10:53:45;;;;;;;13.32;5.43;;;17.40;67.90;;;;;;5063882;28;20079;-63
2021/05/29 10:56:16;;;;;;;13.07;5.43;;;17.40;67.70;;;;;;5086401;28;20027;-63
2021/05/29 10:58:54;;;;;;;13.35;5.55;;;17.40;67.10;;;;;;5085819;28;20058;-63
2021/05/29 11:01:45;;;;;;;13.70;5.38;;;17.50;67.30;;;;;;5073922;28;20401;-66
2021/05/29 11:04:11;;;;;;;13.40;5.18;;;17.50;67.80;;;;;;5064767;28;20103;-67
2021/05/29 11:06:38;;;;;;;16.35;5.28;;;17.50;67.40;;;;;;5085933;28;20180;-64
2021/05/29 11:09:05;;;;;;;13.45;5.13;;;17.50;67.50;;;;;;5106220;28;20028;-65
2021/05/29 11:11:37;;;;;;;12.90;5.47;;;17.50;67.20;;;;;;5069944;28;20166;-64
2021/05/29 11:14:16;;;;;;;;;;;17.50;67.30;;;;;;5084540;28;20106;-65
2021/05/29 11:16:51;;;;;;;28.77;6.07;;;17.50;67.50;;;;;;5085970;28;19908;-66
2021/05/29 11:19:25;;;;;;;13.15;5.15;;;17.50;67.40;;;;;;5063312;28;20039;-63
2021/05/29 11:22:00;;;;;;;12.13;4.90;;;17.50;67.10;;;;;;5073010;28;20031;-65
2021/05/29 11:24:46;;;;;;;11.15;4.78;;;17.50;67.10;;;;;;5075174;28;20458;-64
2021/05/29 11:27:25;;;;;;;9.15;5.32;;;17.50;67.10;;;;;;5056853;28;20508;-64
2021/05/29 11:30:01;;;;;;;11.10;4.72;;;17.50;66.70;;;;;;5067606;28;20028;-65
2021/05/29 11:32:44;;;;;;;12.63;5.20;;;17.50;66.70;;;;;;5085564;28;20032;-66
2021/05/29 11:35:36;;;;;;;10.65;4.70;;;17.50;66.80;;;;;;5085328;28;20375;-66
2021/05/29 11:38:19;;;;;;;10.73;4.57;;;17.60;66.80;;;;;;5059974;28;20614;-64
2021/05/29 11:41:11;;;;;;;11.05;4.90;;;17.50;66.40;;;;;;5085805;28;20028;-64
2021/05/29 11:43:53;;;;;;;9.35;5.07;;;17.60;66.60;;;;;;5074242;28;20233;-64
2021/05/29 11:46:23;;;;;;;8.02;4.38;;;17.60;66.70;;;;;;5106259;28;20384;-64
2021/05/29 11:48:55;;;;;;;10.80;4.95;;;17.50;66.50;;;;;;5105999;28;20031;-64
2021/05/29 11:51:21;;;;;;;9.35;4.80;;;17.60;66.50;;;;;;5100203;28;20501;-65
2021/05/29 11:53:49;;;;;;;10.18;5.00;;;17.60;66.60;;;;;;5086297;28;20816;-67
2021/05/29 11:56:28;;;;;;;8.98;4.60;;;17.60;66.50;;;;;;5076120;28;20052;-64
2021/05/29 11:58:54;;;;;;;8.98;4.55;;;17.60;66.40;;;;;;5085530;28;20103;-66
2021/05/29 12:01:32;;;;;;;8.57;4.75;;;17.60;66.50;;;;;;5084953;28;20089;-64
2021/05/29 12:03:59;;;;;;;9.65;4.50;;;17.60;66.30;;;;;;5085001;28;20023;-64
2021/05/29 12:06:51;;;;;;;12.43;5.10;;;17.60;65.90;;;;;;5084574;28;20635;-69
2021/05/29 12:09:20;;;;;;;19.15;6.22;;;17.60;65.80;;;;;;5066722;28;20028;-68
2021/05/29 12:11:50;;;;;;;20.85;5.97;;;17.60;66.20;;;;;;5073037;28;20024;-65
2021/05/29 12:14:30;;;;;;;12.85;5.55;;;17.70;66.40;;;;;;5046441;28;20447;-68
2021/05/29 12:17:02;;;;;;;9.25;5.20;;;17.70;66.30;;;;;;5077059;28;20028;-64
2021/05/29 12:19:29;;;;;;;;;;;17.70;66.30;;;;;;5067394;28;20036;-65
2021/05/29 12:21:57;;;;;;;11.38;5.07;;;17.80;66.30;;;;;;5085001;28;20011;-64
2021/05/29 12:24:24;;;;;;;14.05;5.53;;;17.80;66.00;;;;;;5085319;28;20027;-67
2021/05/29 12:26:51;;;;;;;22.58;7.22;;;17.90;65.80;;;;;;5064532;28;20497;-68
2021/05/29 12:29:22;;;;;;;41.90;12.50;;;17.90;65.60;;;;;;5084633;28;20093;-68
2021/05/29 12:31:52;;;;;;;97.10;25.67;;;17.90;65.60;;;;;;5084331;28;20031;-64
2021/05/29 12:34:18;;;;;;;95.38;22.33;;;17.90;65.80;;;;;;5067040;28;20028;-65
2021/05/29 12:36:58;;;;;;;117.65;27.08;;;17.90;66.00;;;;;;5084191;28;20054;-65
2021/05/29 12:39:46;;;;;;;138.67;32.27;;;18.00;65.80;;;;;;5084184;28;20039;-65
2021/05/29 12:42:18;;;;;;;71.97;22.42;;;18.00;65.90;;;;;;5077237;28;20035;-64
2021/05/29 12:44:53;;;;;;;79.15;21.27;;;18.10;65.60;;;;;;5061917;28;20062;-66
2021/05/29 12:47:21;;;;;;;67.32;19.63;;;18.10;65.80;;;;;;5082279;28;20050;-64
2021/05/29 12:49:47;;;;;;;65.82;19.88;;;18.10;65.70;;;;;;5066399;28;20027;-65
2021/05/29 12:52:32;;;;;;;62.28;19.27;;;18.10;65.60;;;;;;5065924;28;20032;-65
2021/05/29 12:54:58;;;;;;;60.28;18.55;;;18.10;65.50;;;;;;5082605;28;20038;-64
2021/05/29 12:57:35;;;;;;;47.22;15.70;;;18.10;65.00;;;;;;5060677;28;20032;-64
2021/05/29 13:00:52;;;;;;;40.47;14.27;;;18.10;64.90;;;;;;5065384;28;20387;-66
2021/05/29 13:09:22;;;;;;;46.88;12.98;;;18.20;65.30;;;;;;5084996;28;20062;-65